Terminal Aerodrome Forecast
Issued by NWS

Home | Current Version | Previous Version | Text Only | Print | Product List | Glossary On
Versions: 1 2 3 4 5 6 7 8 9 10 11 12 13 14
000
FTUS45 KFGZ 251300 AAA
TAFPRC
TAF AMD
KPRC 251308Z 2513/2612 19007KT P6SM BKN035
     FM251830 22014G27KT P6SM SCT025 BKN035
      TEMPO 2521/2601 4SM -SHRA BR BKN025
     FM260100 25010KT 3SM -SHRA BR BKN015 OVC025=

USA.gov is the U.S. government's official web portal to all federal, state and local government web resources and services.